Time;durP1;ratioP1;P1;durP2;ratioP2;P2;SDS_P1;SDS_P2;PMS_P1;PMS_P2;Temp;Humidity;BMP_temperature;BMP_pressure;BME280_temperature;BME280_humidity;BME280_pressure;Samples;Min_cycle;Max_cycle;Signal;HPM_P1;HPM_P2
2021/05/26 00:00:53;;;;;;;;;;;;;;;22.93;58.47;99664.75;5105466;28;19916;-52
2021/05/26 00:03:18;;;;;;;;;;;;;;;22.87;58.61;99663.19;5094387;28;19969;-51
2021/05/26 00:05:43;;;;;;;;;;;;;;;23.00;58.11;99657.06;5094030;28;19912;-51
2021/05/26 00:08:08;;;;;;;;;;;;;;;22.97;58.25;99654.94;5094182;28;19920;-47
2021/05/26 00:10:34;;;;;;;;;;;;;;;22.78;58.63;99651.34;5094611;28;19912;-47
2021/05/26 00:12:59;;;;;;;;;;;;;;;22.93;58.00;99653.09;5094241;28;19920;-49
2021/05/26 00:15:25;;;;;;;;;;;;;;;22.79;58.33;99656.47;5094046;28;19970;-47
2021/05/26 00:17:50;;;;;;;;;;;;;;;22.59;59.19;99656.66;5094608;28;20341;-50
2021/05/26 00:20:15;;;;;;;;;;;;;;;22.33;59.87;99653.38;5093993;28;20516;-48
2021/05/26 00:22:40;;;;;;;;;;;;;;;21.91;60.91;99654.72;5100002;28;19912;-48
2021/05/26 00:25:06;;;;;;;;;;;;;;;21.94;61.05;99654.16;5113055;28;20336;-50
2021/05/26 00:27:31;;;;;;;;;;;;;;;21.65;61.59;99652.19;5114509;28;19949;-49
2021/05/26 00:29:57;;;;;;;;;;;;;;;21.59;62.02;99645.97;5114407;28;19912;-52
2021/05/26 00:32:22;;;;;;;;;;;;;;;21.99;60.68;99646.81;5114380;28;20355;-50
2021/05/26 00:34:47;;;;;;;;;;;;;;;22.22;60.51;99648.00;5114507;28;19919;-50
2021/05/26 00:37:12;;;;;;;;;;;;;;;22.35;59.57;99643.88;5114269;28;19970;-51
2021/05/26 00:39:38;;;;;;;;;;;;;;;22.17;60.17;99639.91;5114184;28;19911;-51
2021/05/26 00:42:03;;;;;;;;;;;;;;;22.25;59.91;99636.59;5114459;28;19938;-51
2021/05/26 00:44:28;;;;;;;;;;;;;;;22.36;59.45;99633.84;5114471;28;19999;-49
2021/05/26 00:46:54;;;;;;;;;;;;;;;22.33;59.15;99632.50;5114205;28;20351;-51
2021/05/26 00:49:19;;;;;;;;;;;;;;;22.10;60.54;99636.69;5113942;28;19912;-52
2021/05/26 00:51:44;;;;;;;;;;;;;;;22.21;59.85;99645.56;5114135;28;19912;-51
2021/05/26 00:54:10;;;;;;;;;;;;;;;21.72;60.76;99641.81;5113597;28;19938;-50
2021/05/26 00:56:35;;;;;;;;;;;;;;;22.36;59.43;99641.97;5113820;28;19911;-53
2021/05/26 00:59:01;;;;;;;;;;;;;;;22.55;58.81;99642.88;5113929;28;19961;-51
2021/05/26 01:01:26;;;;;;;;;;;;;;;22.68;58.39;99635.19;5113676;28;19924;-52
2021/05/26 01:03:53;;;;;;;;;;;;;;;22.69;58.36;99647.63;5113027;28;19995;-51
2021/05/26 01:06:19;;;;;;;;;;;;;;;22.84;57.79;99642.03;5113006;28;19912;-53
2021/05/26 01:08:44;;;;;;;;;;;;;;;22.83;57.74;99633.09;5113965;28;19922;-51
2021/05/26 01:11:09;;;;;;;;;;;;;;;22.91;57.32;99636.28;5113668;28;20421;-53
2021/05/26 01:13:34;;;;;;;;;;;;;;;22.97;57.26;99635.13;5111839;28;19974;-51
2021/05/26 01:16:00;;;;;;;;;;;;;;;22.61;57.75;99632.78;5113681;28;19911;-52
2021/05/26 01:18:29;;;;;;;;;;;;;;;22.78;57.64;99637.78;5113348;28;20006;-52
2021/05/26 01:20:55;;;;;;;;;;;;;;;22.79;57.72;99639.38;5113468;27;19919;-51
2021/05/26 01:23:20;;;;;;;;;;;;;;;22.82;57.66;99642.31;5113537;28;20014;-49
2021/05/26 01:25:52;;;;;;;;;;;;;;;22.88;57.47;99637.66;5113081;28;19919;-51
2021/05/26 01:28:18;;;;;;;;;;;;;;;22.69;58.14;99640.28;5113562;28;19995;-52
2021/05/26 01:30:43;;;;;;;;;;;;;;;22.85;57.35;99643.69;5113454;28;20012;-52
2021/05/26 01:33:08;;;;;;;;;;;;;;;22.94;57.24;99641.97;5113269;28;19922;-48
2021/05/26 01:35:34;;;;;;;;;;;;;;;23.00;57.20;99638.09;5113305;28;19912;-48
2021/05/26 01:37:59;;;;;;;;;;;;;;;23.02;56.79;99646.75;5112896;28;19919;-49
2021/05/26 01:40:24;;;;;;;;;;;;;;;22.98;57.09;99643.00;5113109;28;19920;-50
2021/05/26 01:42:50;;;;;;;;;;;;;;;22.98;57.08;99647.59;5113110;28;19911;-52
2021/05/26 01:45:15;;;;;;;;;;;;;;;22.98;57.11;99647.59;5113112;28;19919;-51
2021/05/26 01:47:41;;;;;;;;;;;;;;;22.98;57.25;99645.72;5112979;28;20382;-49
2021/05/26 01:50:19;;;;;;;;;;;;;;;23.03;56.65;99651.09;5112868;28;19912;-50
2021/05/26 01:52:44;;;;;;;;;;;;;;;22.89;57.35;99646.63;5112777;28;20019;-52
2021/05/26 01:55:10;;;;;;;;;;;;;;;22.80;57.25;99647.22;5112852;28;19937;-37
2021/05/26 01:57:35;;;;;;;;;;;;;;;22.61;57.88;99643.63;5112568;28;19912;-49
2021/05/26 02:00:01;;;;;;;;;;;;;;;22.60;58.26;99642.03;5112606;28;19911;-52
2021/05/26 02:02:26;;;;;;;;;;;;;;;22.31;58.26;99648.22;5112484;28;19919;-52
2021/05/26 02:04:52;;;;;;;;;;;;;;;22.29;58.97;99653.13;5112628;28;20006;-50
2021/05/26 02:07:17;;;;;;;;;;;;;;;22.47;58.42;99648.13;5111307;28;19912;-51
2021/05/26 02:09:43;;;;;;;;;;;;;;;22.60;57.73;99650.97;5112696;28;20044;-51
2021/05/26 02:12:24;;;;;;;;;;;;;;;22.50;57.77;99650.25;5112762;28;20363;-52
2021/05/26 02:14:50;;;;;;;;;;;;;;;22.58;57.37;99649.63;5112422;28;19927;-52
2021/05/26 02:17:15;;;;;;;;;;;;;;;22.48;58.10;99658.66;5112806;28;19945;-52
2021/05/26 02:19:41;;;;;;;;;;;;;;;22.54;57.93;99659.41;5112341;28;19911;-51
2021/05/26 02:22:06;;;;;;;;;;;;;;;22.34;58.38;99661.22;5112190;28;19915;-51
2021/05/26 02:24:31;;;;;;;;;;;;;;;22.46;57.48;99658.13;5112578;28;19999;-51
2021/05/26 02:26:56;;;;;;;;;;;;;;;22.53;57.85;99658.63;5111994;28;19918;-49
2021/05/26 02:29:22;;;;;;;;;;;;;;;22.49;57.86;99659.47;5112095;28;19939;-50
2021/05/26 02:31:47;;;;;;;;;;;;;;;22.55;57.76;99656.44;5112041;28;20390;-51
2021/05/26 02:34:12;;;;;;;;;;;;;;;22.54;57.85;99667.56;5112299;28;19982;-51
2021/05/26 02:36:39;;;;;;;;;;;;;;;22.51;57.90;99663.53;5112368;28;19968;-52
2021/05/26 02:39:05;;;;;;;;;;;;;;;22.37;57.96;99671.50;5112282;28;19912;-52
2021/05/26 02:41:30;;;;;;;;;;;;;;;22.43;57.90;99678.50;5111987;28;19922;-50
2021/05/26 02:43:55;;;;;;;;;;;;;;;22.54;57.79;99679.22;5111908;28;20023;-50
2021/05/26 02:46:20;;;;;;;;;;;;;;;22.60;57.91;99669.16;5111955;28;19939;-51
2021/05/26 02:48:46;;;;;;;;;;;;;;;22.64;57.79;99671.00;5111994;28;20317;-49
2021/05/26 02:51:11;;;;;;;;;;;;;;;22.61;58.11;99676.97;5110890;28;19949;-48
2021/05/26 02:53:36;;;;;;;;;;;;;;;22.60;58.34;99672.66;5111977;28;19974;-48
2021/05/26 02:56:02;;;;;;;;;;;;;;;22.59;57.99;99671.03;5111950;28;19912;-49
2021/05/26 02:58:27;;;;;;;;;;;;;;;22.62;57.77;99666.97;5111651;28;19918;-49
2021/05/26 03:00:52;;;;;;;;;;;;;;;22.52;58.20;99672.47;5111706;28;19927;-50
2021/05/26 03:03:18;;;;;;;;;;;;;;;22.40;58.63;99670.91;5111958;28;20006;-49
2021/05/26 03:05:43;;;;;;;;;;;;;;;22.15;58.70;99669.19;5111617;28;19912;-50
2021/05/26 03:08:08;;;;;;;;;;;;;;;22.21;58.64;99672.66;5111880;28;20002;-52
2021/05/26 03:10:33;;;;;;;;;;;;;;;22.25;58.36;99666.41;5111917;28;19916;-50
2021/05/26 03:12:59;;;;;;;;;;;;;;;22.36;58.26;99671.78;5111680;28;19916;-49
2021/05/26 03:15:24;;;;;;;;;;;;;;;22.53;57.93;99674.09;5111882;28;19928;-52
2021/05/26 03:17:49;;;;;;;;;;;;;;;22.53;57.73;99672.19;5111722;28;20076;-51
2021/05/26 03:20:15;;;;;;;;;;;;;;;22.58;57.90;99677.56;5111723;28;19911;-50
2021/05/26 03:22:40;;;;;;;;;;;;;;;22.65;57.20;99675.31;5111489;28;20382;-51
2021/05/26 03:25:06;;;;;;;;;;;;;;;22.56;57.38;99676.22;5111711;28;19962;-52
2021/05/26 03:27:35;;;;;;;;;;;;;;;22.57;57.04;99681.34;5111752;28;20333;-52
2021/05/26 03:30:01;;;;;;;;;;;;;;;22.65;56.99;99688.06;5114905;28;19975;-51
2021/05/26 03:32:27;;;;;;;;;;;;;;;22.59;57.26;99690.00;5114821;28;20296;-51
2021/05/26 03:34:52;;;;;;;;;;;;;;;22.30;58.02;99694.59;5115111;28;20252;-53
2021/05/26 03:37:17;;;;;;;;;;;;;;;22.42;57.71;99697.75;5114882;28;20010;-49
2021/05/26 03:39:43;;;;;;;;;;;;;;;22.39;57.55;99701.00;5114745;28;19976;-51
2021/05/26 03:42:08;;;;;;;;;;;;;;;22.41;57.77;99694.25;5114413;28;20295;-48
2021/05/26 03:44:33;;;;;;;;;;;;;;;22.44;57.43;99701.78;5114848;28;20002;-51
2021/05/26 03:46:58;;;;;;;;;;;;;;;22.27;58.61;99706.81;5114586;28;19929;-48
2021/05/26 03:49:24;;;;;;;;;;;;;;;22.41;57.69;99704.28;5114673;28;19919;-51
2021/05/26 03:51:49;;;;;;;;;;;;;;;22.63;57.52;99704.63;5114759;28;20006;-52
2021/05/26 03:54:14;;;;;;;;;;;;;;;22.98;57.03;99710.00;5114533;28;20347;-49
2021/05/26 03:56:41;;;;;;;;;;;;;;;23.32;56.31;99709.13;5114482;28;19958;-49
2021/05/26 03:59:08;;;;;;;;;;;;;;;23.43;55.72;99703.28;5114450;28;20050;-52
2021/05/26 04:01:33;;;;;;;;;;;;;;;23.23;56.44;99707.06;5114397;28;19939;-49
2021/05/26 04:03:58;;;;;;;;;;;;;;;23.01;57.20;99712.16;5113562;28;20340;-51
2021/05/26 04:06:23;;;;;;;;;;;;;;;23.24;56.41;99718.72;5113330;28;19963;-49
2021/05/26 04:08:49;;;;;;;;;;;;;;;23.45;55.74;99718.50;5098636;28;19920;-51
2021/05/26 04:11:14;;;;;;;;;;;;;;;23.69;55.02;99718.47;5092938;28;20007;-52
2021/05/26 04:13:39;;;;;;;;;;;;;;;23.70;54.75;99717.38;5092766;28;19939;-51
2021/05/26 04:16:04;;;;;;;;;;;;;;;23.77;54.55;99713.19;5092890;28;20030;-49
2021/05/26 04:18:30;;;;;;;;;;;;;;;23.84;54.24;99720.19;5093067;28;19919;-52
2021/05/26 04:20:55;;;;;;;;;;;;;;;23.88;54.24;99722.06;5092297;28;19981;-51
2021/05/26 04:23:20;;;;;;;;;;;;;;;23.92;54.36;99723.06;5104389;28;19915;-52
2021/05/26 04:25:50;;;;;;;;;;;;;;;24.18;53.67;99722.72;5112298;28;19912;-52
2021/05/26 04:28:17;;;;;;;;;;;;;;;24.44;52.64;99727.78;5110400;28;19966;-53
2021/05/26 04:30:42;;;;;;;;;;;;;;;24.40;52.72;99738.44;5111286;28;20006;-50
2021/05/26 04:33:07;;;;;;;;;;;;;;;24.49;53.00;99739.38;5113272;27;20113;-51
2021/05/26 04:35:33;;;;;;;;;;;;;;;24.81;53.49;99740.53;5112194;28;20337;-50
2021/05/26 04:37:58;;;;;;;;;;;;;;;25.40;51.14;99748.19;5101897;28;19916;-52
2021/05/26 04:40:26;;;;;;;;;;;;;;;25.63;49.18;99746.41;5077114;28;19990;-50
2021/05/26 04:42:51;;;;;;;;;;;;;;;25.63;49.27;99747.19;5092465;28;20465;-53
2021/05/26 04:45:16;;;;;;;;;;;;;;;25.62;49.40;99740.13;5092767;28;19912;-52
2021/05/26 04:47:42;;;;;;;;;;;;;;;25.62;49.89;99752.94;5092857;28;20065;-51
2021/05/26 04:50:07;;;;;;;;;;;;;;;25.77;48.53;99757.28;5092571;28;19912;-50
2021/05/26 04:52:32;;;;;;;;;;;;;;;25.90;48.25;99753.72;5092352;28;20290;-52
2021/05/26 04:54:58;;;;;;;;;;;;;;;26.27;47.54;99754.56;5092458;28;20508;-49
2021/05/26 04:57:23;;;;;;;;;;;;;;;26.11;47.68;99754.91;5090803;28;19912;-50
2021/05/26 04:59:48;;;;;;;;;;;;;;;26.18;47.42;99759.13;5092147;28;19999;-50
2021/05/26 05:02:14;;;;;;;;;;;;;;;26.14;47.79;99762.50;5091967;28;20015;-50
2021/05/26 05:04:39;;;;;;;;;;;;;;;26.41;47.34;99760.78;5092435;28;19916;-52
2021/05/26 05:07:04;;;;;;;;;;;;;;;26.55;46.92;99776.31;5092432;28;19977;-52
2021/05/26 05:09:29;;;;;;;;;;;;;;;26.85;46.76;99772.84;5092526;28;19923;-52
2021/05/26 05:11:55;;;;;;;;;;;;;;;27.05;46.04;99771.50;5091662;28;19965;-51
2021/05/26 05:14:20;;;;;;;;;;;;;;;27.29;45.46;99773.91;5091585;28;19935;-52
2021/05/26 05:16:46;;;;;;;;;;;;;;;26.78;46.33;99775.19;5086413;28;19916;-50
2021/05/26 05:19:11;;;;;;;;;;;;;;;26.86;46.74;99777.19;5091119;28;20398;-50
2021/05/26 05:21:37;;;;;;;;;;;;;;;27.14;46.53;99782.50;5092572;28;20367;-38
2021/05/26 05:24:03;;;;;;;;;;;;;;;27.59;45.41;99776.94;5092724;28;19912;-38
2021/05/26 05:26:29;;;;;;;;;;;;;;;27.65;45.18;99777.59;5089816;28;20288;-51
2021/05/26 05:28:55;;;;;;;;;;;;;;;27.15;46.59;99775.09;5090645;28;19951;-50
2021/05/26 05:31:21;;;;;;;;;;;;;;;26.76;47.94;99776.66;5090494;28;19916;-48
2021/05/26 05:33:47;;;;;;;;;;;;;;;26.57;47.89;99777.59;5090778;28;19912;-51
2021/05/26 05:36:13;;;;;;;;;;;;;;;26.73;47.08;99778.06;5090785;28;20275;-49
2021/05/26 05:38:39;;;;;;;;;;;;;;;26.60;47.09;99778.91;5092080;28;19912;-51
2021/05/26 05:41:04;;;;;;;;;;;;;;;26.99;46.02;99780.97;5090622;28;20311;-50
2021/05/26 05:43:29;;;;;;;;;;;;;;;27.32;45.41;99774.41;5091823;28;20364;-49
2021/05/26 05:45:55;;;;;;;;;;;;;;;27.44;44.38;99772.69;5090305;28;19981;-38
2021/05/26 05:48:20;;;;;;;;;;;;;;;27.62;43.72;99775.50;5070480;28;20368;-38
2021/05/26 05:50:45;;;;;;;;;;;;;;;27.60;43.83;99775.00;5091388;28;19912;-36
2021/05/26 05:53:12;;;;;;;;;;;;;;;26.92;45.36;99783.31;5091951;28;20363;-37
2021/05/26 05:55:37;;;;;;;;;;;;;;;26.78;45.92;99788.06;5091560;28;19912;-38
2021/05/26 05:58:03;;;;;;;;;;;;;;;26.22;47.23;99779.25;5091870;28;19984;-37
2021/05/26 06:00:28;;;;;;;;;;;;;;;25.79;48.81;99776.84;5091646;28;19920;-36
2021/05/26 06:02:54;;;;;;;;;;;;;;;26.71;47.36;99774.81;5091548;28;20557;-37
2021/05/26 06:05:19;;;;;;;;;;;;;;;27.51;45.31;99777.69;5091742;28;19916;-38
2021/05/26 06:07:44;;;;;;;;;;;;;;;27.84;44.22;99771.88;5091423;28;19912;-36
2021/05/26 06:10:11;;;;;;;;;;;;;;;27.88;44.11;99770.94;5091619;28;19930;-36
2021/05/26 06:12:36;;;;;;;;;;;;;;;27.88;44.09;99773.66;5091701;28;20272;-38
2021/05/26 06:15:02;;;;;;;;;;;;;;;28.44;43.45;99773.06;5089990;28;19924;-38
2021/05/26 06:17:27;;;;;;;;;;;;;;;28.94;43.02;99769.81;5093997;28;19923;-38
2021/05/26 06:19:53;;;;;;;;;;;;;;;29.51;40.96;99774.16;5092109;28;19916;-37
2021/05/26 06:22:18;;;;;;;;;;;;;;;29.85;39.95;99764.16;5091618;28;19920;-37
2021/05/26 06:24:43;;;;;;;;;;;;;;;29.93;40.00;99771.53;5097246;28;19934;-39
2021/05/26 06:27:08;;;;;;;;;;;;;;;30.16;39.16;99766.53;5092404;28;19928;-38
2021/05/26 06:29:34;;;;;;;;;;;;;;;29.69;40.52;99768.59;5099110;28;19995;-38
2021/05/26 06:31:59;;;;;;;;;;;;;;;29.88;40.46;99759.97;5101465;28;19992;-37
2021/05/26 06:34:24;;;;;;;;;;;;;;;30.04;39.16;99758.22;5093219;28;19926;-38
2021/05/26 06:36:50;;;;;;;;;;;;;;;29.86;39.79;99757.53;5090423;28;19920;-39
2021/05/26 06:39:15;;;;;;;;;;;;;;;29.99;40.45;99752.94;5089771;28;19919;-38
2021/05/26 06:41:40;;;;;;;;;;;;;;;30.35;39.42;99755.13;5089152;28;19958;-38
2021/05/26 06:44:06;;;;;;;;;;;;;;;30.26;39.01;99748.88;5089274;28;19963;-38
2021/05/26 06:46:31;;;;;;;;;;;;;;;30.44;39.77;99744.03;5089230;28;19912;-38
2021/05/26 06:48:56;;;;;;;;;;;;;;;30.59;39.07;99742.63;5089833;28;20014;-38
2021/05/26 06:51:21;;;;;;;;;;;;;;;31.11;39.23;99747.59;5088999;28;19912;-38
2021/05/26 06:53:47;;;;;;;;;;;;;;;31.63;36.89;99746.13;5088487;28;20420;-39
2021/05/26 06:56:12;;;;;;;;;;;;;;;31.96;36.66;99740.47;5089388;28;19912;-38
2021/05/26 06:58:39;;;;;;;;;;;;;;;31.86;36.51;99749.19;5089119;28;19912;-38
2021/05/26 07:01:04;;;;;;;;;;;;;;;31.59;37.08;99745.22;5089712;28;19939;-38
2021/05/26 07:03:29;;;;;;;;;;;;;;;31.75;37.81;99742.56;5092387;28;20388;-40
2021/05/26 07:05:55;;;;;;;;;;;;;;;31.52;37.12;99745.00;5094455;28;19981;-40
2021/05/26 07:08:20;;;;;;;;;;;;;;;32.05;36.60;99736.81;5093789;28;19912;-37
2021/05/26 07:10:45;;;;;;;;;;;;;;;32.11;37.24;99738.97;5093302;28;19958;-37
2021/05/26 07:13:11;;;;;;;;;;;;;;;32.68;35.60;99739.00;5093443;28;19978;-38
2021/05/26 07:15:36;;;;;;;;;;;;;;;33.39;35.22;99742.00;5094000;28;19973;-37
2021/05/26 07:18:02;;;;;;;;;;;;;;;33.55;34.80;99739.19;5093911;28;19912;-38
2021/05/26 07:20:27;;;;;;;;;;;;;;;34.41;33.45;99738.34;5093653;28;20009;-39
2021/05/26 07:22:53;;;;;;;;;;;;;;;34.34;34.07;99741.75;5093291;28;20030;-38
2021/05/26 07:25:18;;;;;;;;;;;;;;;34.97;32.45;99737.81;5093141;28;20177;-38
2021/05/26 07:27:43;;;;;;;;;;;;;;;35.19;31.82;99729.94;5093145;28;20382;-39
2021/05/26 07:30:09;;;;;;;;;;;;;;;34.40;32.71;99729.25;5093115;28;20035;-38
2021/05/26 07:32:34;;;;;;;;;;;;;;;34.78;32.49;99724.06;5092748;28;19919;-38
2021/05/26 07:34:59;;;;;;;;;;;;;;;34.81;32.33;99721.38;5093688;28;20302;-39
2021/05/26 07:37:25;;;;;;;;;;;;;;;35.35;31.30;99721.47;5093200;28;19916;-38
2021/05/26 07:39:50;;;;;;;;;;;;;;;34.64;32.33;99728.13;5092979;28;19958;-37
2021/05/26 07:42:16;;;;;;;;;;;;;;;34.95;32.40;99722.78;5092992;28;19924;-37
2021/05/26 07:44:42;;;;;;;;;;;;;;;35.86;30.79;99720.25;5093178;28;19912;-39
2021/05/26 07:47:07;;;;;;;;;;;;;;;35.66;31.12;99723.09;5093167;28;19935;-39
2021/05/26 07:49:32;;;;;;;;;;;;;;;36.45;29.41;99723.38;5092827;28;19912;-38
2021/05/26 07:52:03;;;;;;;;;;;;;;;36.83;28.16;99724.19;5092906;28;19923;-38
2021/05/26 07:54:29;;;;;;;;;;;;;;;36.40;29.69;99724.50;5092913;28;19935;-39
2021/05/26 07:56:56;;;;;;;;;;;;;;;36.15;30.76;99732.47;5092638;28;20364;-38
2021/05/26 07:59:21;;;;;;;;;;;;;;;36.67;28.85;99721.63;5092744;28;19934;-38
2021/05/26 08:01:47;;;;;;;;;;;;;;;36.83;28.88;99729.72;5092650;28;20404;-39
2021/05/26 08:04:12;;;;;;;;;;;;;;;37.53;28.38;99728.72;5092600;28;19912;-39
2021/05/26 08:06:37;;;;;;;;;;;;;;;37.88;27.92;99732.09;5092783;28;20057;-39
2021/05/26 08:09:03;;;;;;;;;;;;;;;37.75;27.59;99734.41;5092536;28;19912;-39
2021/05/26 08:11:28;;;;;;;;;;;;;;;37.01;29.00;99727.09;5092725;28;19978;-38
2021/05/26 08:13:55;;;;;;;;;;;;;;;36.48;29.63;99728.13;5092319;28;19927;-39
2021/05/26 08:16:21;;;;;;;;;;;;;;;36.98;28.67;99736.97;5092444;28;20363;-38
2021/05/26 08:18:46;;;;;;;;;;;;;;;36.70;29.69;99729.19;5092856;28;19920;-39
2021/05/26 08:21:11;;;;;;;;;;;;;;;35.91;29.22;99726.28;5092782;28;19928;-39
2021/05/26 08:23:37;;;;;;;;;;;;;;;36.50;29.09;99717.47;5092146;28;19919;-38
2021/05/26 08:26:02;;;;;;;;;;;;;;;36.72;28.14;99718.53;5090789;28;19935;-39
2021/05/26 08:28:27;;;;;;;;;;;;;;;36.10;29.30;99722.56;5090945;28;19912;-39
2021/05/26 08:30:53;;;;;;;;;;;;;;;35.71;29.94;99717.28;5091089;28;20014;-39
2021/05/26 08:33:18;;;;;;;;;;;;;;;36.45;29.31;99715.84;5090906;28;20390;-40
2021/05/26 08:35:44;;;;;;;;;;;;;;;36.43;28.69;99714.66;5091057;28;20272;-37
2021/05/26 08:38:09;;;;;;;;;;;;;;;35.59;29.64;99698.13;5090741;28;20012;-40
2021/05/26 08:40:34;;;;;;;;;;;;;;;35.14;30.48;99713.63;5091058;28;20350;-39
2021/05/26 08:42:59;;;;;;;;;;;;;;;34.98;30.41;99708.22;5091727;28;20360;-37
2021/05/26 08:45:26;;;;;;;;;;;;;;;35.61;29.47;99707.63;5090741;28;19947;-39
2021/05/26 08:47:52;;;;;;;;;;;;;;;35.61;29.97;99709.63;5092011;28;19912;-37
2021/05/26 08:50:17;;;;;;;;;;;;;;;35.81;29.23;99711.13;5091881;28;19977;-38
2021/05/26 08:52:42;;;;;;;;;;;;;;;36.20;28.27;99719.13;5091805;28;19920;-38
2021/05/26 08:55:11;;;;;;;;;;;;;;;36.25;29.38;99709.69;5091535;28;19918;-38
2021/05/26 08:57:37;;;;;;;;;;;;;;;36.17;29.56;99714.34;5091886;28;19912;-43
2021/05/26 09:00:03;;;;;;;;;;;;;;;36.54;27.99;99699.72;5091628;28;19912;-39
2021/05/26 09:02:28;;;;;;;;;;;;;;;35.76;29.13;99699.56;5091475;28;20015;-39
2021/05/26 09:04:54;;;;;;;;;;;;;;;36.56;28.11;99686.28;5091797;28;19919;-39
2021/05/26 09:07:20;;;;;;;;;;;;;;;36.27;28.50;99696.28;5091663;28;19912;-39
2021/05/26 09:09:48;;;;;;;;;;;;;;;35.84;29.32;99695.72;5091471;28;19915;-39
2021/05/26 09:12:14;;;;;;;;;;;;;;;35.05;30.20;99687.03;5091801;28;19960;-40
2021/05/26 09:14:39;;;;;;;;;;;;;;;35.28;29.38;99685.41;5091577;28;20264;-39
2021/05/26 09:17:08;;;;;;;;;;;;;;;35.49;29.36;99687.69;5091627;28;20388;-38
2021/05/26 09:19:33;;;;;;;;;;;;;;;34.76;30.91;99693.22;5091778;28;19912;-38
2021/05/26 09:22:01;;;;;;;;;;;;;;;35.27;30.92;99697.66;5091205;28;19923;-39
2021/05/26 09:24:27;;;;;;;;;;;;;;;34.63;31.64;99678.75;5089899;28;19935;-39
2021/05/26 09:26:53;;;;;;;;;;;;;;;34.37;32.44;99687.78;5091080;28;19912;-39
2021/05/26 09:29:26;;;;;;;;;;;;;;;35.11;30.65;99676.47;5092118;28;19912;-39
2021/05/26 09:31:54;;;;;;;;;;;;;;;35.43;30.88;99679.75;5091671;28;19949;-39
2021/05/26 09:34:34;;;;;;;;;;;;;;;35.22;30.78;99680.22;5091480;28;19912;-39
2021/05/26 09:36:59;;;;;;;;;;;;;;;35.11;30.75;99673.69;5091597;28;19991;-38
2021/05/26 09:39:26;;;;;;;;;;;;;;;34.99;30.62;99671.91;5091630;28;20449;-38
2021/05/26 09:41:51;;;;;;;;;;;;;;;34.75;31.55;99670.34;5089598;28;19923;-39
2021/05/26 09:44:17;;;;;;;;;;;;;;;34.17;32.80;99660.16;5091889;28;19912;-39
2021/05/26 09:46:45;;;;;;;;;;;;;;;34.00;32.26;99655.88;5091631;28;19946;-38
2021/05/26 09:49:13;;;;;;;;;;;;;;;33.92;33.58;99665.16;5091291;28;19993;-39
2021/05/26 09:51:40;;;;;;;;;;;;;;;34.32;31.56;99649.41;5091412;28;19912;-39
2021/05/26 09:54:24;;;;;;;;;;;;;;;33.40;32.04;99647.88;5091688;28;19944;-39
2021/05/26 09:56:52;;;;;;;;;;;;;;;33.66;32.99;99652.81;5091804;28;20007;-38
2021/05/26 09:59:18;;;;;;;;;;;;;;;32.88;33.74;99652.56;5091312;28;19912;-38
2021/05/26 10:01:43;;;;;;;;;;;;;;;33.36;33.15;99643.44;5091107;28;19916;-39
2021/05/26 10:04:09;;;;;;;;;;;;;;;33.12;33.58;99645.25;5091695;28;19912;-39
2021/05/26 10:06:35;;;;;;;;;;;;;;;33.00;33.63;99634.31;5091376;28;19980;-38
2021/05/26 10:09:00;;;;;;;;;;;;;;;33.35;33.49;99633.56;5089947;28;19923;-38
2021/05/26 10:11:26;;;;;;;;;;;;;;;33.10;34.23;99642.84;5091056;28;19916;-38
2021/05/26 10:13:51;;;;;;;;;;;;;;;32.86;34.55;99634.75;5089397;28;20376;-37
2021/05/26 10:16:17;;;;;;;;;;;;;;;32.86;34.13;99634.75;5089940;28;19921;-38
2021/05/26 10:18:42;;;;;;;;;;;;;;;32.77;34.39;99629.44;5091305;28;20398;-38
2021/05/26 10:21:08;;;;;;;;;;;;;;;32.47;35.79;99620.78;5090177;28;20011;-39
2021/05/26 10:23:33;;;;;;;;;;;;;;;33.08;34.53;99616.78;5091091;28;19923;-39
2021/05/26 10:25:58;;;;;;;;;;;;;;;33.33;33.85;99614.63;5090731;28;19916;-39
2021/05/26 10:28:24;;;;;;;;;;;;;;;32.32;35.15;99609.38;5090964;28;20447;-38
2021/05/26 10:30:49;;;;;;;;;;;;;;;32.64;34.39;99614.16;5090742;28;20057;-39
2021/05/26 10:33:15;;;;;;;;;;;;;;;32.25;35.34;99611.16;5090662;28;20368;-39
2021/05/26 10:35:53;;;;;;;;;;;;;;;31.79;36.04;99592.19;5090864;28;19943;-39
2021/05/26 10:38:18;;;;;;;;;;;;;;;31.71;36.66;99602.19;5091051;28;20003;-37
2021/05/26 10:40:44;;;;;;;;;;;;;;;32.35;35.23;99599.66;5089535;28;20011;-38
2021/05/26 10:43:12;;;;;;;;;;;;;;;32.51;34.75;99591.38;5090637;28;19935;-38
2021/05/26 10:45:38;;;;;;;;;;;;;;;33.26;34.06;99589.66;5090915;28;19912;-39
2021/05/26 10:48:03;;;;;;;;;;;;;;;33.37;33.11;99584.38;5090862;28;20345;-38
2021/05/26 10:50:44;;;;;;;;;;;;;;;33.52;32.84;99589.03;5089433;28;19982;-38
2021/05/26 10:53:13;;;;;;;;;;;;;;;31.84;35.94;99582.91;5091205;28;19934;-38
2021/05/26 10:55:42;;;;;;;;;;;;;;;32.08;35.36;99571.00;5090583;28;19919;-38
2021/05/26 10:58:13;;;;;;;;;;;;;;;31.80;36.36;99580.06;5090756;28;19996;-38
2021/05/26 11:00:42;;;;;;;;;;;;;;;30.58;37.74;99571.59;5091130;28;19970;-37
2021/05/26 11:03:29;;;;;;;;;;;;;;;31.06;36.84;99566.47;5090847;28;20308;-39
2021/05/26 11:05:58;;;;;;;;;;;;;;;31.08;37.19;99553.19;5090787;28;20437;-39
2021/05/26 11:08:26;;;;;;;;;;;;;;;30.99;38.02;99547.81;5090842;28;19912;-37
2021/05/26 11:10:52;;;;;;;;;;;;;;;31.66;36.48;99549.38;5090423;28;20983;-37
2021/05/26 11:13:17;;;;;;;;;;;;;;;31.47;36.92;99550.84;5089475;28;19931;-38
2021/05/26 11:15:43;;;;;;;;;;;;;;;31.18;37.01;99563.69;5090343;28;20057;-38
2021/05/26 11:18:09;;;;;;;;;;;;;;;31.33;36.78;99542.94;5090559;28;19977;-38
2021/05/26 11:20:34;;;;;;;;;;;;;;;32.16;36.17;99542.53;5090747;28;19923;-38
2021/05/26 11:22:59;;;;;;;;;;;;;;;32.82;34.75;99542.97;5099568;28;19978;-39
2021/05/26 11:25:26;;;;;;;;;;;;;;;32.88;34.20;99536.03;5108713;28;20010;-39
2021/05/26 11:27:52;;;;;;;;;;;;;;;32.57;35.16;99525.84;5110537;28;19918;-39
2021/05/26 11:30:18;;;;;;;;;;;;;;;32.13;36.67;99526.72;5110764;28;20328;-39
2021/05/26 11:32:43;;;;;;;;;;;;;;;31.16;38.13;99524.75;5110817;28;19916;-39
2021/05/26 11:35:08;;;;;;;;;;;;;;;31.48;37.18;99519.44;5110667;28;20343;-38
2021/05/26 11:37:36;;;;;;;;;;;;;;;31.96;36.32;99520.34;5110781;28;19919;-39
2021/05/26 11:40:02;;;;;;;;;;;;;;;31.91;35.96;99506.88;5110938;28;19946;-38
2021/05/26 11:42:29;;;;;;;;;;;;;;;30.82;38.57;99503.28;5110328;28;19916;-39
2021/05/26 11:44:55;;;;;;;;;;;;;;;31.50;37.34;99495.16;5110714;28;20280;-39
2021/05/26 11:47:29;;;;;;;;;;;;;;;31.49;37.21;99504.56;5110498;28;20369;-39
2021/05/26 11:49:57;;;;;;;;;;;;;;;31.28;37.56;99504.72;5113432;28;19922;-38
2021/05/26 11:52:23;;;;;;;;;;;;;;;31.12;38.30;99498.34;5114422;28;19940;-37
2021/05/26 11:55:06;;;;;;;;;;;;;;;30.64;39.37;99505.50;5114744;28;19959;-37
2021/05/26 11:57:32;;;;;;;;;;;;;;;30.77;39.37;99499.63;5114451;28;19965;-38
2021/05/26 11:59:57;;;;;;;;;;;;;;;30.08;40.80;99495.00;5113095;28;19912;-39
2021/05/26 12:02:23;;;;;;;;;;;;;;;30.17;41.08;99503.94;5114277;28;19923;-38
2021/05/26 12:04:48;;;;;;;;;;;;;;;30.43;40.44;99483.66;5114163;28;19918;-38
2021/05/26 12:07:14;;;;;;;;;;;;;;;30.49;40.18;99468.53;5114051;28;20010;-39
2021/05/26 12:09:39;;;;;;;;;;;;;;;29.89;40.69;99493.59;5112826;28;19915;-38
2021/05/26 12:12:17;;;;;;;;;;;;;;;29.83;41.45;99478.50;5114242;28;19927;-38
2021/05/26 12:14:42;;;;;;;;;;;;;;;30.35;40.51;99471.63;5113844;28;19924;-39
2021/05/26 12:17:09;;;;;;;;;;;;;;;30.49;40.21;99488.56;5114087;28;19969;-38
2021/05/26 12:19:34;;;;;;;;;;;;;;;30.99;40.18;99478.34;5113072;28;19912;-38
2021/05/26 12:22:18;;;;;;;;;;;;;;;30.56;40.82;99472.31;5112941;28;20375;-38
2021/05/26 12:24:50;;;;;;;;;;;;;;;30.56;40.18;99457.78;5093587;28;19912;-38
2021/05/26 12:27:43;;;;;;;;;;;;;;;30.95;39.83;99447.22;5093302;28;19912;-36
2021/05/26 12:30:13;;;;;;;;;;;;;;;30.56;40.27;99457.78;5093283;28;19916;-39
2021/05/26 12:32:38;;;;;;;;;;;;;;;30.54;40.00;99451.81;5093665;28;19912;-38
2021/05/26 12:35:03;;;;;;;;;;;;;;;30.29;40.40;99459.22;5093096;28;20302;-39
2021/05/26 12:37:38;;;;;;;;;;;;;;;30.38;40.84;99454.47;5093251;28;20007;-37
2021/05/26 12:40:04;;;;;;;;;;;;;;;30.34;40.92;99459.84;5093092;28;19912;-38
2021/05/26 12:42:39;;;;;;;;;;;;;;;29.80;41.71;99462.72;5093144;28;19935;-39